sensor_id;sensor_type;location;lat;lon;timestamp;P1;durP1;ratioP1;P2;durP2;ratioP2
48268;SDS011;34088;52.232;5.196;2023-04-29T00:01:55;59.72;;;32.17;;
48268;SDS011;34088;52.232;5.196;2023-04-29T00:04:23;66.78;;;32.15;;
48268;SDS011;34088;52.232;5.196;2023-04-29T00:06:52;58.80;;;30.55;;
48268;SDS011;34088;52.232;5.196;2023-04-29T00:09:17;65.38;;;33.47;;
48268;SDS011;34088;52.232;5.196;2023-04-29T00:11:43;65.45;;;33.17;;
48268;SDS011;34088;52.232;5.196;2023-04-29T00:14:11;58.60;;;28.50;;
48268;SDS011;34088;52.232;5.196;2023-04-29T00:16:36;60.42;;;31.83;;
48268;SDS011;34088;52.232;5.196;2023-04-29T00:31:53;48.65;;;27.38;;
48268;SDS011;34088;52.232;5.196;2023-04-29T00:34:18;49.65;;;27.05;;
48268;SDS011;34088;52.232;5.196;2023-04-29T00:36:44;48.90;;;26.52;;
48268;SDS011;34088;52.232;5.196;2023-04-29T00:39:10;51.10;;;26.38;;
48268;SDS011;34088;52.232;5.196;2023-04-29T00:41:37;48.72;;;26.75;;
48268;SDS011;34088;52.232;5.196;2023-04-29T00:44:03;46.42;;;25.55;;
48268;SDS011;34088;52.232;5.196;2023-04-29T00:46:28;46.05;;;25.90;;
48268;SDS011;34088;52.232;5.196;2023-04-29T00:48:54;50.15;;;25.92;;
48268;SDS011;34088;52.232;5.196;2023-04-29T00:51:20;50.70;;;26.08;;
48268;SDS011;34088;52.232;5.196;2023-04-29T00:53:45;41.20;;;23.98;;
48268;SDS011;34088;52.232;5.196;2023-04-29T00:56:11;46.85;;;25.85;;
48268;SDS011;34088;52.232;5.196;2023-04-29T00:58:38;49.30;;;25.55;;
48268;SDS011;34088;52.232;5.196;2023-04-29T01:01:04;41.72;;;25.02;;
48268;SDS011;34088;52.232;5.196;2023-04-29T01:03:30;42.20;;;25.58;;
48268;SDS011;34088;52.232;5.196;2023-04-29T01:11:18;43.40;;;24.17;;
48268;SDS011;34088;52.232;5.196;2023-04-29T01:13:53;44.95;;;25.58;;
48268;SDS011;34088;52.232;5.196;2023-04-29T01:16:39;43.40;;;26.10;;
48268;SDS011;34088;52.232;5.196;2023-04-29T01:21:50;43.97;;;25.50;;
48268;SDS011;34088;52.232;5.196;2023-04-29T01:24:16;45.38;;;26.58;;
48268;SDS011;34088;52.232;5.196;2023-04-29T01:26:43;40.85;;;25.15;;
48268;SDS011;34088;52.232;5.196;2023-04-29T01:32:05;41.10;;;25.17;;
48268;SDS011;34088;52.232;5.196;2023-04-29T01:34:51;43.85;;;25.40;;
48268;SDS011;34088;52.232;5.196;2023-04-29T01:42:29;38.28;;;24.48;;
48268;SDS011;34088;52.232;5.196;2023-04-29T01:45:10;42.50;;;24.05;;
48268;SDS011;34088;52.232;5.196;2023-04-29T01:47:36;37.65;;;22.67;;
48268;SDS011;34088;52.232;5.196;2023-04-29T01:50:03;38.03;;;22.48;;
48268;SDS011;34088;52.232;5.196;2023-04-29T01:52:29;38.42;;;22.63;;
48268;SDS011;34088;52.232;5.196;2023-04-29T01:54:54;38.30;;;22.73;;
48268;SDS011;34088;52.232;5.196;2023-04-29T01:57:21;35.78;;;21.92;;
48268;SDS011;34088;52.232;5.196;2023-04-29T01:59:46;40.33;;;22.63;;
48268;SDS011;34088;52.232;5.196;2023-04-29T02:02:12;34.58;;;20.52;;
48268;SDS011;34088;52.232;5.196;2023-04-29T02:04:39;37.00;;;22.42;;
48268;SDS011;34088;52.232;5.196;2023-04-29T02:07:05;36.35;;;22.65;;
48268;SDS011;34088;52.232;5.196;2023-04-29T02:09:31;35.42;;;22.00;;
48268;SDS011;34088;52.232;5.196;2023-04-29T02:11:56;36.78;;;21.73;;
48268;SDS011;34088;52.232;5.196;2023-04-29T02:14:22;38.65;;;22.40;;
48268;SDS011;34088;52.232;5.196;2023-04-29T02:16:47;38.92;;;22.75;;
48268;SDS011;34088;52.232;5.196;2023-04-29T02:19:13;34.13;;;21.30;;
48268;SDS011;34088;52.232;5.196;2023-04-29T02:21:38;39.28;;;22.60;;
48268;SDS011;34088;52.232;5.196;2023-04-29T02:24:05;38.25;;;21.85;;
48268;SDS011;34088;52.232;5.196;2023-04-29T02:26:31;39.50;;;22.55;;
48268;SDS011;34088;52.232;5.196;2023-04-29T02:28:58;36.95;;;23.70;;
48268;SDS011;34088;52.232;5.196;2023-04-29T02:31:23;39.03;;;23.38;;
48268;SDS011;34088;52.232;5.196;2023-04-29T02:33:49;41.78;;;23.45;;
48268;SDS011;34088;52.232;5.196;2023-04-29T02:36:15;43.17;;;24.48;;
48268;SDS011;34088;52.232;5.196;2023-04-29T02:38:42;40.95;;;23.65;;
48268;SDS011;34088;52.232;5.196;2023-04-29T02:41:07;42.47;;;23.95;;
48268;SDS011;34088;52.232;5.196;2023-04-29T02:43:33;42.20;;;23.95;;
48268;SDS011;34088;52.232;5.196;2023-04-29T02:45:59;40.75;;;24.48;;
48268;SDS011;34088;52.232;5.196;2023-04-29T02:48:25;44.08;;;24.88;;
48268;SDS011;34088;52.232;5.196;2023-04-29T02:50:50;42.72;;;24.15;;
48268;SDS011;34088;52.232;5.196;2023-04-29T02:53:16;33.83;;;21.10;;
48268;SDS011;34088;52.232;5.196;2023-04-29T02:55:42;43.20;;;24.35;;
48268;SDS011;34088;52.232;5.196;2023-04-29T02:58:08;41.85;;;25.05;;
48268;SDS011;34088;52.232;5.196;2023-04-29T03:00:33;43.83;;;24.42;;
48268;SDS011;34088;52.232;5.196;2023-04-29T03:02:59;42.08;;;23.85;;
48268;SDS011;34088;52.232;5.196;2023-04-29T03:05:25;38.40;;;23.88;;
48268;SDS011;34088;52.232;5.196;2023-04-29T03:07:51;43.35;;;22.75;;
48268;SDS011;34088;52.232;5.196;2023-04-29T03:10:16;39.55;;;23.48;;
48268;SDS011;34088;52.232;5.196;2023-04-29T03:12:43;38.15;;;23.13;;
48268;SDS011;34088;52.232;5.196;2023-04-29T03:15:08;45.20;;;23.27;;
48268;SDS011;34088;52.232;5.196;2023-04-29T03:17:34;46.03;;;25.02;;
48268;SDS011;34088;52.232;5.196;2023-04-29T03:20:00;40.55;;;23.48;;
48268;SDS011;34088;52.232;5.196;2023-04-29T03:22:26;42.80;;;23.80;;
48268;SDS011;34088;52.232;5.196;2023-04-29T03:24:52;43.85;;;23.48;;
48268;SDS011;34088;52.232;5.196;2023-04-29T03:27:17;41.67;;;24.42;;
48268;SDS011;34088;52.232;5.196;2023-04-29T03:29:43;39.25;;;22.80;;
48268;SDS011;34088;52.232;5.196;2023-04-29T03:32:09;43.63;;;24.02;;
48268;SDS011;34088;52.232;5.196;2023-04-29T03:34:34;41.05;;;22.83;;
48268;SDS011;34088;52.232;5.196;2023-04-29T03:37:00;38.10;;;23.20;;
48268;SDS011;34088;52.232;5.196;2023-04-29T03:39:26;44.53;;;23.85;;
48268;SDS011;34088;52.232;5.196;2023-04-29T03:41:56;41.35;;;23.88;;
48268;SDS011;34088;52.232;5.196;2023-04-29T03:44:25;43.10;;;24.75;;
48268;SDS011;34088;52.232;5.196;2023-04-29T03:46:51;39.80;;;24.02;;
48268;SDS011;34088;52.232;5.196;2023-04-29T03:49:16;38.95;;;22.25;;
48268;SDS011;34088;52.232;5.196;2023-04-29T03:51:42;38.60;;;23.33;;
48268;SDS011;34088;52.232;5.196;2023-04-29T03:54:11;42.97;;;24.42;;
48268;SDS011;34088;52.232;5.196;2023-04-29T03:56:37;42.65;;;23.95;;
48268;SDS011;34088;52.232;5.196;2023-04-29T03:59:03;40.35;;;24.27;;
48268;SDS011;34088;52.232;5.196;2023-04-29T04:01:28;43.85;;;25.17;;
48268;SDS011;34088;52.232;5.196;2023-04-29T04:03:54;42.55;;;24.15;;
48268;SDS011;34088;52.232;5.196;2023-04-29T04:06:20;43.00;;;23.70;;
48268;SDS011;34088;52.232;5.196;2023-04-29T04:08:46;37.50;;;22.98;;
48268;SDS011;34088;52.232;5.196;2023-04-29T04:11:11;37.05;;;22.85;;
48268;SDS011;34088;52.232;5.196;2023-04-29T04:13:39;36.08;;;22.55;;
48268;SDS011;34088;52.232;5.196;2023-04-29T04:16:07;37.03;;;22.48;;
48268;SDS011;34088;52.232;5.196;2023-04-29T04:18:34;40.25;;;22.15;;
48268;SDS011;34088;52.232;5.196;2023-04-29T04:23:32;32.05;;;20.95;;
48268;SDS011;34088;52.232;5.196;2023-04-29T04:25:57;30.67;;;18.63;;
48268;SDS011;34088;52.232;5.196;2023-04-29T04:28:23;26.75;;;17.00;;
48268;SDS011;34088;52.232;5.196;2023-04-29T04:30:49;30.90;;;18.15;;
48268;SDS011;34088;52.232;5.196;2023-04-29T04:33:14;29.98;;;17.80;;
48268;SDS011;34088;52.232;5.196;2023-04-29T04:35:40;27.30;;;17.02;;
48268;SDS011;34088;52.232;5.196;2023-04-29T04:38:06;25.02;;;16.45;;
48268;SDS011;34088;52.232;5.196;2023-04-29T04:40:33;20.45;;;13.65;;
48268;SDS011;34088;52.232;5.196;2023-04-29T04:42:58;22.45;;;14.95;;
48268;SDS011;34088;52.232;5.196;2023-04-29T04:45:24;26.23;;;15.52;;
48268;SDS011;34088;52.232;5.196;2023-04-29T04:47:52;24.63;;;16.15;;
48268;SDS011;34088;52.232;5.196;2023-04-29T04:50:18;28.30;;;16.83;;
48268;SDS011;34088;52.232;5.196;2023-04-29T04:52:44;29.35;;;17.40;;
48268;SDS011;34088;52.232;5.196;2023-04-29T04:55:10;25.17;;;16.88;;
48268;SDS011;34088;52.232;5.196;2023-04-29T04:57:35;28.17;;;16.88;;
48268;SDS011;34088;52.232;5.196;2023-04-29T05:00:01;31.38;;;18.27;;
48268;SDS011;34088;52.232;5.196;2023-04-29T05:02:28;33.85;;;19.20;;
48268;SDS011;34088;52.232;5.196;2023-04-29T05:04:53;39.05;;;21.45;;
48268;SDS011;34088;52.232;5.196;2023-04-29T05:07:19;37.47;;;21.23;;
48268;SDS011;34088;52.232;5.196;2023-04-29T05:09:45;37.70;;;22.48;;
48268;SDS011;34088;52.232;5.196;2023-04-29T05:12:10;38.92;;;22.58;;
48268;SDS011;34088;52.232;5.196;2023-04-29T05:14:36;36.83;;;21.80;;
48268;SDS011;34088;52.232;5.196;2023-04-29T05:17:01;33.42;;;20.60;;
48268;SDS011;34088;52.232;5.196;2023-04-29T05:19:27;34.17;;;20.67;;
48268;SDS011;34088;52.232;5.196;2023-04-29T05:21:53;33.53;;;20.05;;
48268;SDS011;34088;52.232;5.196;2023-04-29T05:24:18;36.88;;;20.25;;
48268;SDS011;34088;52.232;5.196;2023-04-29T05:26:44;35.20;;;20.55;;
48268;SDS011;34088;52.232;5.196;2023-04-29T05:29:10;33.90;;;20.30;;
48268;SDS011;34088;52.232;5.196;2023-04-29T05:31:36;38.95;;;19.63;;
48268;SDS011;34088;52.232;5.196;2023-04-29T05:34:02;36.45;;;20.88;;
48268;SDS011;34088;52.232;5.196;2023-04-29T05:36:29;33.03;;;19.88;;
48268;SDS011;34088;52.232;5.196;2023-04-29T05:38:55;35.45;;;19.98;;
48268;SDS011;34088;52.232;5.196;2023-04-29T05:41:21;36.65;;;20.17;;
48268;SDS011;34088;52.232;5.196;2023-04-29T05:43:48;38.58;;;20.23;;
48268;SDS011;34088;52.232;5.196;2023-04-29T05:46:14;29.90;;;19.08;;
48268;SDS011;34088;52.232;5.196;2023-04-29T05:48:40;34.33;;;19.80;;
48268;SDS011;34088;52.232;5.196;2023-04-29T05:51:06;33.28;;;19.80;;
48268;SDS011;34088;52.232;5.196;2023-04-29T05:53:31;35.05;;;19.08;;
48268;SDS011;34088;52.232;5.196;2023-04-29T05:55:57;36.88;;;18.38;;
48268;SDS011;34088;52.232;5.196;2023-04-29T05:58:23;31.70;;;19.52;;
48268;SDS011;34088;52.232;5.196;2023-04-29T06:00:49;34.45;;;20.17;;
48268;SDS011;34088;52.232;5.196;2023-04-29T06:03:15;34.47;;;18.13;;
48268;SDS011;34088;52.232;5.196;2023-04-29T06:05:41;35.55;;;20.05;;
48268;SDS011;34088;52.232;5.196;2023-04-29T06:08:07;31.42;;;18.55;;
48268;SDS011;34088;52.232;5.196;2023-04-29T06:10:32;36.58;;;18.38;;
48268;SDS011;34088;52.232;5.196;2023-04-29T06:12:58;31.30;;;16.75;;
48268;SDS011;34088;52.232;5.196;2023-04-29T06:15:24;32.80;;;18.33;;
48268;SDS011;34088;52.232;5.196;2023-04-29T06:17:49;27.27;;;16.77;;
48268;SDS011;34088;52.232;5.196;2023-04-29T06:20:16;28.52;;;16.25;;
48268;SDS011;34088;52.232;5.196;2023-04-29T06:22:41;31.65;;;17.67;;
48268;SDS011;34088;52.232;5.196;2023-04-29T06:25:07;30.50;;;17.65;;
48268;SDS011;34088;52.232;5.196;2023-04-29T06:27:33;31.60;;;17.45;;
48268;SDS011;34088;52.232;5.196;2023-04-29T06:29:58;35.17;;;17.38;;
48268;SDS011;34088;52.232;5.196;2023-04-29T06:32:24;27.33;;;16.73;;
48268;SDS011;34088;52.232;5.196;2023-04-29T06:34:50;26.25;;;15.93;;
48268;SDS011;34088;52.232;5.196;2023-04-29T06:37:15;31.17;;;17.05;;
48268;SDS011;34088;52.232;5.196;2023-04-29T06:39:41;30.83;;;16.48;;
48268;SDS011;34088;52.232;5.196;2023-04-29T06:42:07;30.67;;;16.95;;
48268;SDS011;34088;52.232;5.196;2023-04-29T06:44:32;25.88;;;16.23;;
48268;SDS011;34088;52.232;5.196;2023-04-29T06:46:58;27.70;;;14.90;;
48268;SDS011;34088;52.232;5.196;2023-04-29T06:49:23;30.80;;;16.15;;
48268;SDS011;34088;52.232;5.196;2023-04-29T06:51:49;29.83;;;16.27;;
48268;SDS011;34088;52.232;5.196;2023-04-29T06:54:14;31.23;;;15.65;;
48268;SDS011;34088;52.232;5.196;2023-04-29T06:56:40;28.63;;;16.00;;
48268;SDS011;34088;52.232;5.196;2023-04-29T06:59:06;28.85;;;15.25;;
48268;SDS011;34088;52.232;5.196;2023-04-29T07:01:31;29.27;;;15.65;;
48268;SDS011;34088;52.232;5.196;2023-04-29T07:03:57;25.38;;;13.82;;
48268;SDS011;34088;52.232;5.196;2023-04-29T07:06:22;26.67;;;14.68;;
48268;SDS011;34088;52.232;5.196;2023-04-29T07:08:48;29.70;;;15.05;;
48268;SDS011;34088;52.232;5.196;2023-04-29T07:11:14;28.65;;;14.65;;
48268;SDS011;34088;52.232;5.196;2023-04-29T07:13:40;26.92;;;13.93;;
48268;SDS011;34088;52.232;5.196;2023-04-29T07:16:13;25.55;;;13.73;;
48268;SDS011;34088;52.232;5.196;2023-04-29T07:18:40;26.75;;;14.90;;
48268;SDS011;34088;52.232;5.196;2023-04-29T07:21:06;27.40;;;14.65;;
48268;SDS011;34088;52.232;5.196;2023-04-29T07:23:32;29.20;;;15.55;;
48268;SDS011;34088;52.232;5.196;2023-04-29T07:25:57;25.08;;;13.48;;
48268;SDS011;34088;52.232;5.196;2023-04-29T07:28:23;30.38;;;15.35;;
48268;SDS011;34088;52.232;5.196;2023-04-29T07:30:49;25.55;;;14.68;;
48268;SDS011;34088;52.232;5.196;2023-04-29T07:33:15;26.73;;;15.43;;
48268;SDS011;34088;52.232;5.196;2023-04-29T07:35:41;23.83;;;14.05;;
48268;SDS011;34088;52.232;5.196;2023-04-29T07:38:08;23.83;;;13.48;;
48268;SDS011;34088;52.232;5.196;2023-04-29T07:40:34;24.80;;;13.25;;
48268;SDS011;34088;52.232;5.196;2023-04-29T07:42:59;23.08;;;13.60;;
48268;SDS011;34088;52.232;5.196;2023-04-29T07:45:28;26.70;;;13.95;;
48268;SDS011;34088;52.232;5.196;2023-04-29T07:47:54;23.42;;;13.18;;
48268;SDS011;34088;52.232;5.196;2023-04-29T07:50:20;32.33;;;14.32;;
48268;SDS011;34088;52.232;5.196;2023-04-29T07:52:46;22.70;;;13.15;;
48268;SDS011;34088;52.232;5.196;2023-04-29T07:55:12;21.25;;;12.68;;
48268;SDS011;34088;52.232;5.196;2023-04-29T07:57:37;22.58;;;13.73;;
48268;SDS011;34088;52.232;5.196;2023-04-29T08:00:04;23.95;;;12.63;;
48268;SDS011;34088;52.232;5.196;2023-04-29T08:02:30;23.33;;;13.02;;
48268;SDS011;34088;52.232;5.196;2023-04-29T08:04:55;25.20;;;13.05;;
48268;SDS011;34088;52.232;5.196;2023-04-29T08:07:21;23.35;;;12.80;;
48268;SDS011;34088;52.232;5.196;2023-04-29T08:09:46;22.17;;;12.43;;
48268;SDS011;34088;52.232;5.196;2023-04-29T08:12:12;34.55;;;13.65;;
48268;SDS011;34088;52.232;5.196;2023-04-29T08:14:37;26.17;;;12.63;;
48268;SDS011;34088;52.232;5.196;2023-04-29T08:17:03;20.27;;;11.88;;
48268;SDS011;34088;52.232;5.196;2023-04-29T08:19:28;25.40;;;12.68;;
48268;SDS011;34088;52.232;5.196;2023-04-29T08:21:55;17.90;;;9.68;;
48268;SDS011;34088;52.232;5.196;2023-04-29T08:24:20;18.38;;;11.15;;
48268;SDS011;34088;52.232;5.196;2023-04-29T08:26:46;17.88;;;10.45;;
48268;SDS011;34088;52.232;5.196;2023-04-29T08:29:12;19.95;;;10.63;;
48268;SDS011;34088;52.232;5.196;2023-04-29T08:31:37;16.50;;;10.68;;
48268;SDS011;34088;52.232;5.196;2023-04-29T08:34:03;22.77;;;10.73;;
48268;SDS011;34088;52.232;5.196;2023-04-29T08:36:29;21.58;;;10.93;;
48268;SDS011;34088;52.232;5.196;2023-04-29T08:38:54;17.20;;;9.95;;
48268;SDS011;34088;52.232;5.196;2023-04-29T08:41:20;15.93;;;9.75;;
48268;SDS011;34088;52.232;5.196;2023-04-29T08:43:46;15.05;;;10.23;;
48268;SDS011;34088;52.232;5.196;2023-04-29T08:46:11;17.65;;;9.88;;
48268;SDS011;34088;52.232;5.196;2023-04-29T08:48:37;14.48;;;9.15;;
48268;SDS011;34088;52.232;5.196;2023-04-29T08:51:04;15.55;;;9.65;;
48268;SDS011;34088;52.232;5.196;2023-04-29T08:53:30;21.02;;;10.60;;
48268;SDS011;34088;52.232;5.196;2023-04-29T08:55:56;16.40;;;10.00;;
48268;SDS011;34088;52.232;5.196;2023-04-29T08:58:25;17.02;;;10.13;;
48268;SDS011;34088;52.232;5.196;2023-04-29T09:00:52;18.75;;;9.82;;
48268;SDS011;34088;52.232;5.196;2023-04-29T09:03:36;20.88;;;9.35;;
48268;SDS011;34088;52.232;5.196;2023-04-29T09:06:08;14.85;;;9.65;;
48268;SDS011;34088;52.232;5.196;2023-04-29T09:08:35;17.42;;;9.15;;
48268;SDS011;34088;52.232;5.196;2023-04-29T09:11:01;12.25;;;9.18;;
48268;SDS011;34088;52.232;5.196;2023-04-29T09:13:28;15.68;;;9.05;;
48268;SDS011;34088;52.232;5.196;2023-04-29T09:15:54;14.85;;;8.95;;
48268;SDS011;34088;52.232;5.196;2023-04-29T09:23:48;14.98;;;9.07;;
48268;SDS011;34088;52.232;5.196;2023-04-29T09:26:18;16.60;;;8.60;;
48268;SDS011;34088;52.232;5.196;2023-04-29T09:28:43;13.52;;;8.82;;
48268;SDS011;34088;52.232;5.196;2023-04-29T09:31:11;15.65;;;8.98;;
48268;SDS011;34088;52.232;5.196;2023-04-29T09:33:50;17.45;;;8.68;;
48268;SDS011;34088;52.232;5.196;2023-04-29T09:36:37;15.35;;;8.75;;
48268;SDS011;34088;52.232;5.196;2023-04-29T09:39:09;13.07;;;8.77;;
48268;SDS011;34088;52.232;5.196;2023-04-29T09:44:19;14.43;;;8.15;;
48268;SDS011;34088;52.232;5.196;2023-04-29T09:46:56;16.33;;;8.68;;
48268;SDS011;34088;52.232;5.196;2023-04-29T09:49:26;11.20;;;8.55;;
48268;SDS011;34088;52.232;5.196;2023-04-29T09:52:00;15.13;;;8.90;;
48268;SDS011;34088;52.232;5.196;2023-04-29T09:54:27;15.85;;;8.95;;
48268;SDS011;34088;52.232;5.196;2023-04-29T09:59:32;15.88;;;8.80;;
48268;SDS011;34088;52.232;5.196;2023-04-29T10:02:00;16.23;;;8.55;;
48268;SDS011;34088;52.232;5.196;2023-04-29T10:04:27;11.98;;;8.65;;
48268;SDS011;34088;52.232;5.196;2023-04-29T10:06:54;13.63;;;8.88;;
48268;SDS011;34088;52.232;5.196;2023-04-29T10:09:21;13.13;;;8.63;;
48268;SDS011;34088;52.232;5.196;2023-04-29T10:11:47;16.65;;;9.23;;
48268;SDS011;34088;52.232;5.196;2023-04-29T10:14:15;11.90;;;7.97;;
48268;SDS011;34088;52.232;5.196;2023-04-29T10:16:46;11.02;;;6.90;;
48268;SDS011;34088;52.232;5.196;2023-04-29T10:22:11;11.88;;;7.45;;
48268;SDS011;34088;52.232;5.196;2023-04-29T10:24:38;8.88;;;5.88;;
48268;SDS011;34088;52.232;5.196;2023-04-29T10:27:05;11.02;;;6.80;;
48268;SDS011;34088;52.232;5.196;2023-04-29T10:29:33;12.02;;;7.07;;
48268;SDS011;34088;52.232;5.196;2023-04-29T10:31:59;10.40;;;6.93;;
48268;SDS011;34088;52.232;5.196;2023-04-29T10:34:25;12.13;;;7.47;;
48268;SDS011;34088;52.232;5.196;2023-04-29T10:36:50;10.18;;;6.75;;
48268;SDS011;34088;52.232;5.196;2023-04-29T10:42:04;12.00;;;6.57;;
48268;SDS011;34088;52.232;5.196;2023-04-29T10:44:30;10.10;;;6.90;;
48268;SDS011;34088;52.232;5.196;2023-04-29T10:50:00;11.35;;;7.45;;
48268;SDS011;34088;52.232;5.196;2023-04-29T10:52:28;11.48;;;7.63;;
48268;SDS011;34088;52.232;5.196;2023-04-29T10:55:03;12.43;;;6.78;;
48268;SDS011;34088;52.232;5.196;2023-04-29T10:57:28;11.85;;;7.40;;
48268;SDS011;34088;52.232;5.196;2023-04-29T10:59:54;10.80;;;7.50;;
48268;SDS011;34088;52.232;5.196;2023-04-29T11:02:20;12.43;;;8.27;;
48268;SDS011;34088;52.232;5.196;2023-04-29T11:07:31;14.68;;;7.85;;
48268;SDS011;34088;52.232;5.196;2023-04-29T11:09:56;12.65;;;7.95;;
48268;SDS011;34088;52.232;5.196;2023-04-29T11:12:22;12.00;;;7.45;;
48268;SDS011;34088;52.232;5.196;2023-04-29T11:14:48;15.88;;;8.15;;
48268;SDS011;34088;52.232;5.196;2023-04-29T11:17:15;14.88;;;7.10;;
48268;SDS011;34088;52.232;5.196;2023-04-29T11:27:21;15.15;;;8.15;;
48268;SDS011;34088;52.232;5.196;2023-04-29T11:29:50;11.38;;;7.82;;
48268;SDS011;34088;52.232;5.196;2023-04-29T11:34:51;10.88;;;6.75;;
48268;SDS011;34088;52.232;5.196;2023-04-29T11:37:21;12.25;;;7.40;;
48268;SDS011;34088;52.232;5.196;2023-04-29T11:39:48;11.05;;;6.90;;
48268;SDS011;34088;52.232;5.196;2023-04-29T11:42:18;9.05;;;6.43;;
48268;SDS011;34088;52.232;5.196;2023-04-29T11:44:44;10.48;;;6.93;;
48268;SDS011;34088;52.232;5.196;2023-04-29T11:47:10;8.38;;;5.95;;
48268;SDS011;34088;52.232;5.196;2023-04-29T11:49:36;12.85;;;5.88;;
48268;SDS011;34088;52.232;5.196;2023-04-29T11:52:02;9.48;;;6.22;;
48268;SDS011;34088;52.232;5.196;2023-04-29T11:54:28;9.95;;;6.45;;
48268;SDS011;34088;52.232;5.196;2023-04-29T11:56:54;11.05;;;6.60;;
48268;SDS011;34088;52.232;5.196;2023-04-29T11:59:20;10.30;;;7.18;;
48268;SDS011;34088;52.232;5.196;2023-04-29T12:01:47;10.00;;;5.70;;
48268;SDS011;34088;52.232;5.196;2023-04-29T12:04:15;11.68;;;6.38;;
48268;SDS011;34088;52.232;5.196;2023-04-29T12:06:41;11.80;;;6.72;;
48268;SDS011;34088;52.232;5.196;2023-04-29T12:09:07;12.05;;;6.88;;
48268;SDS011;34088;52.232;5.196;2023-04-29T12:11:33;11.63;;;6.90;;
48268;SDS011;34088;52.232;5.196;2023-04-29T12:14:00;10.15;;;6.05;;
48268;SDS011;34088;52.232;5.196;2023-04-29T12:16:30;9.57;;;6.35;;
48268;SDS011;34088;52.232;5.196;2023-04-29T12:18:56;11.60;;;6.00;;
48268;SDS011;34088;52.232;5.196;2023-04-29T12:21:22;11.63;;;6.78;;
48268;SDS011;34088;52.232;5.196;2023-04-29T12:23:49;10.07;;;5.75;;
48268;SDS011;34088;52.232;5.196;2023-04-29T12:26:15;14.57;;;6.35;;
48268;SDS011;34088;52.232;5.196;2023-04-29T12:28:41;9.07;;;5.43;;
48268;SDS011;34088;52.232;5.196;2023-04-29T12:31:08;12.82;;;6.18;;
48268;SDS011;34088;52.232;5.196;2023-04-29T12:33:35;8.98;;;5.95;;
48268;SDS011;34088;52.232;5.196;2023-04-29T12:36:01;11.95;;;5.88;;
48268;SDS011;34088;52.232;5.196;2023-04-29T12:38:28;9.90;;;5.90;;
48268;SDS011;34088;52.232;5.196;2023-04-29T12:40:55;9.90;;;5.45;;
48268;SDS011;34088;52.232;5.196;2023-04-29T12:43:29;11.57;;;5.78;;
48268;SDS011;34088;52.232;5.196;2023-04-29T12:46:04;8.55;;;5.53;;
48268;SDS011;34088;52.232;5.196;2023-04-29T12:48:32;11.38;;;5.60;;
48268;SDS011;34088;52.232;5.196;2023-04-29T12:50:59;8.75;;;5.30;;
48268;SDS011;34088;52.232;5.196;2023-04-29T12:53:30;13.10;;;5.60;;
48268;SDS011;34088;52.232;5.196;2023-04-29T12:55:56;10.65;;;5.57;;
48268;SDS011;34088;52.232;5.196;2023-04-29T12:58:22;11.90;;;5.78;;
48268;SDS011;34088;52.232;5.196;2023-04-29T13:00:48;8.77;;;5.30;;
48268;SDS011;34088;52.232;5.196;2023-04-29T13:03:13;9.00;;;5.78;;
48268;SDS011;34088;52.232;5.196;2023-04-29T13:05:39;10.35;;;5.20;;
48268;SDS011;34088;52.232;5.196;2023-04-29T13:08:05;9.75;;;5.90;;
48268;SDS011;34088;52.232;5.196;2023-04-29T13:10:32;9.57;;;5.68;;
48268;SDS011;34088;52.232;5.196;2023-04-29T13:12:58;10.32;;;5.65;;
48268;SDS011;34088;52.232;5.196;2023-04-29T13:15:24;10.50;;;6.30;;
48268;SDS011;34088;52.232;5.196;2023-04-29T13:17:50;9.95;;;5.40;;
48268;SDS011;34088;52.232;5.196;2023-04-29T13:20:17;8.70;;;5.45;;
48268;SDS011;34088;52.232;5.196;2023-04-29T13:22:43;10.90;;;5.78;;
48268;SDS011;34088;52.232;5.196;2023-04-29T13:25:09;10.13;;;5.57;;
48268;SDS011;34088;52.232;5.196;2023-04-29T13:27:36;10.45;;;5.35;;
48268;SDS011;34088;52.232;5.196;2023-04-29T13:30:03;8.65;;;5.18;;
48268;SDS011;34088;52.232;5.196;2023-04-29T13:32:29;8.50;;;5.10;;
48268;SDS011;34088;52.232;5.196;2023-04-29T13:34:55;12.73;;;5.60;;
48268;SDS011;34088;52.232;5.196;2023-04-29T13:37:21;7.22;;;4.82;;
48268;SDS011;34088;52.232;5.196;2023-04-29T13:39:47;6.72;;;4.20;;
48268;SDS011;34088;52.232;5.196;2023-04-29T13:42:13;7.07;;;4.07;;
48268;SDS011;34088;52.232;5.196;2023-04-29T13:44:39;7.68;;;3.90;;
48268;SDS011;34088;52.232;5.196;2023-04-29T13:47:11;6.45;;;4.05;;
48268;SDS011;34088;52.232;5.196;2023-04-29T13:49:40;9.70;;;3.67;;
48268;SDS011;34088;52.232;5.196;2023-04-29T13:52:08;5.22;;;3.17;;
48268;SDS011;34088;52.232;5.196;2023-04-29T13:54:34;5.93;;;3.13;;
48268;SDS011;34088;52.232;5.196;2023-04-29T13:57:00;8.15;;;2.95;;
48268;SDS011;34088;52.232;5.196;2023-04-29T13:59:29;5.15;;;2.80;;
48268;SDS011;34088;52.232;5.196;2023-04-29T14:01:56;4.55;;;2.63;;
48268;SDS011;34088;52.232;5.196;2023-04-29T14:04:22;4.85;;;2.40;;
48268;SDS011;34088;52.232;5.196;2023-04-29T14:06:48;6.57;;;2.92;;
48268;SDS011;34088;52.232;5.196;2023-04-29T14:09:15;5.65;;;2.70;;
48268;SDS011;34088;52.232;5.196;2023-04-29T14:11:41;5.85;;;2.50;;
48268;SDS011;34088;52.232;5.196;2023-04-29T14:14:07;5.05;;;2.80;;
48268;SDS011;34088;52.232;5.196;2023-04-29T14:16:33;4.88;;;2.60;;
48268;SDS011;34088;52.232;5.196;2023-04-29T14:18:59;5.18;;;3.20;;
48268;SDS011;34088;52.232;5.196;2023-04-29T14:21:25;3.95;;;2.05;;
48268;SDS011;34088;52.232;5.196;2023-04-29T14:23:51;8.20;;;2.28;;
48268;SDS011;34088;52.232;5.196;2023-04-29T14:26:17;2.97;;;1.70;;
48268;SDS011;34088;52.232;5.196;2023-04-29T14:28:43;4.40;;;2.63;;
48268;SDS011;34088;52.232;5.196;2023-04-29T14:31:09;4.53;;;2.72;;
48268;SDS011;34088;52.232;5.196;2023-04-29T14:33:37;3.58;;;2.17;;
48268;SDS011;34088;52.232;5.196;2023-04-29T14:36:04;5.43;;;2.28;;
48268;SDS011;34088;52.232;5.196;2023-04-29T14:38:31;4.57;;;2.60;;
48268;SDS011;34088;52.232;5.196;2023-04-29T14:40:57;7.35;;;3.10;;
48268;SDS011;34088;52.232;5.196;2023-04-29T14:43:23;6.47;;;2.78;;
48268;SDS011;34088;52.232;5.196;2023-04-29T14:45:48;5.32;;;2.35;;
48268;SDS011;34088;52.232;5.196;2023-04-29T14:48:14;5.00;;;2.58;;
48268;SDS011;34088;52.232;5.196;2023-04-29T14:50:40;3.80;;;2.17;;
48268;SDS011;34088;52.232;5.196;2023-04-29T14:53:06;5.70;;;2.22;;
48268;SDS011;34088;52.232;5.196;2023-04-29T14:55:33;3.55;;;1.90;;
48268;SDS011;34088;52.232;5.196;2023-04-29T14:57:59;3.47;;;1.92;;
48268;SDS011;34088;52.232;5.196;2023-04-29T15:00:28;3.47;;;1.60;;
48268;SDS011;34088;52.232;5.196;2023-04-29T15:02:55;3.60;;;1.73;;
48268;SDS011;34088;52.232;5.196;2023-04-29T15:05:21;2.60;;;1.52;;
48268;SDS011;34088;52.232;5.196;2023-04-29T15:07:48;2.72;;;1.50;;
48268;SDS011;34088;52.232;5.196;2023-04-29T15:10:15;3.53;;;1.40;;
48268;SDS011;34088;52.232;5.196;2023-04-29T15:12:41;3.00;;;1.27;;
48268;SDS011;34088;52.232;5.196;2023-04-29T15:15:07;3.40;;;1.45;;
48268;SDS011;34088;52.232;5.196;2023-04-29T15:17:33;3.22;;;1.65;;
48268;SDS011;34088;52.232;5.196;2023-04-29T15:19:59;3.13;;;1.40;;
48268;SDS011;34088;52.232;5.196;2023-04-29T15:22:25;2.33;;;1.20;;
48268;SDS011;34088;52.232;5.196;2023-04-29T15:24:51;1.95;;;1.40;;
48268;SDS011;34088;52.232;5.196;2023-04-29T15:27:18;2.60;;;1.38;;
48268;SDS011;34088;52.232;5.196;2023-04-29T15:29:45;1.65;;;1.00;;